KLAL/LAL METAR and TAF weather

Enter ICAO airport designator
Station Type Date Time Source
KLAL METAR 2020/07/09 07:35 UTC NOAA

KLAL 090735Z AUTO 24003KT 10SM CLR 23/22 A2994 RMK AO2 PNO


Station Type Date Time Source
KLAL Decoded METAR 2020/07/09 07:35 UTC NOAA

Lakeland Regional, FL, United States (KLAL) 27-59N 082-01W
Jul 09, 2020 - 03:35 AM EDT / 2020.07.09 0735 UTC
Wind: from the WSW (240 degrees) at 3 MPH (3 KT):0
Visibility: 10 mile(s):0
Sky conditions: clear
Temperature: 73 F (23 C)
Dew Point: 71 F (22 C)
Relative Humidity: 94%
Pressure (altimeter): 29.94 in. Hg (1013 hPa)
ob: KLAL 090735Z AUTO 24003KT 10SM CLR 23/22 A2994 RMK AO2 PNO
cycle: 7

Station Type Date Time Source
KLAL TAF 2020/07/09 06:36 UTC NOAA

TAF KLAL 090534Z 0906/1006 VRB03KT P6SM FEW030 BKN250
FM091500 29007KT P6SM VCTS SCT030CB SCT130 BKN250
FM092100 28010KT P6SM SCT035 SCT130 BKN250
FM100300 VRB03KT P6SM FEW030 FEW140
AMD NOT SKED TIL 091100

Example: see airport list